Epic St.ivan — 9HA4347 — position and weather

sailwx.info

Track history (hours):
 
Tides and Currents Weather Stations Pressure Air Temp Water Temp Dewpoint Dewpoint Depression Visibility Wind Speed Wind Dir Waves Ship Positions

Epic St.ivan

Last reported at 2017-Sep-20 12:25 UTC. Time now 2017-Sep-23 02:23 UTC.
Position N 35°58' W 005°37'.

Length 99 m; draft 5.6 m.

Type: Tanker. MMSI: 249714000.

Date/timePositionNaut miles runAvg speedWind from/ knotsBaromVisibWave heightAir tempDewpointWater temp
2017-Sep-20 12:25N 35°58' W 005°37'712.3
2017-Sep-20 11:52N 35°60' W 005°29'411.6
2017-Sep-20 11:30N 36°01' W 005°24'4 0.2
2017-Sep-19 06:55N 36°06' W 005°23'3 8.2
2017-Sep-19 06:31N 36°03' W 005°21'1 1.8
2017-Sep-19 05:58N 36°03' W 005°22'1 2.0
2017-Sep-19 05:30N 36°03' W 005°21'0 0.3
2017-Sep-19 05:00N 36°03' W 005°21'0 0.4
2017-Sep-19 04:30N 36°03' W 005°21'1 1.4
2017-Sep-19 04:00N 36°03' W 005°21'0 0.7
2017-Sep-19 03:30N 36°03' W 005°22'5 9.6
2017-Sep-19 03:00N 35°59' W 005°25'8 0.2
2017-Sep-17 00:24N 35°58' W 005°35'410.9
2017-Sep-17 00:00N 35°59' W 005°30'510.4
2017-Sep-16 23:30N 36°01' W 005°24'611.1
2017-Sep-16 23:00N 36°07' W 005°23'0 0.0
2017-Sep-15 17:15N 36°07' W 005°23'411.0
2017-Sep-15 16:54N 36°04' W 005°21'1 3.1
2017-Sep-15 16:30N 36°03' W 005°20'3 5.8
2017-Sep-15 16:00N 36°02' W 005°23'714.3
2017-Sep-15 15:30N 35°57' W 005°30'  
2017-Sep-12 14:00N 35°58' W 005°38'611.1
2017-Sep-12 13:30N 35°59' W 005°31'510.0
2017-Sep-12 13:00N 36°01' W 005°25'510.2
2017-Sep-12 12:30N 36°06' W 005°23'4 7.5
2017-Sep-12 11:59N 36°10' W 005°24'1 0.1
2017-Sep-11 22:05N 36°11' W 005°24'0 0.0
2017-Sep-11 21:47N 36°11' W 005°24'0 0.0
2017-Sep-11 21:29N 36°11' W 005°24'0 0.0
2017-Sep-11 20:59N 36°11' W 005°24'0 0.0
2017-Sep-11 20:29N 36°11' W 005°24'10 0.8
2017-Sep-11 08:23N 36°00' W 005°24'613.9
2017-Sep-11 07:56N 35°57' W 005°30'  
Track history (hours):
 
Tides and Currents Weather Stations Pressure Air Temp Water Temp Dewpoint Dewpoint Depression Visibility Wind Speed Wind Dir Waves Ship Positions

Epic St.ivan

Last reported at 2017-Sep-20 12:25 UTC. Time now 2017-Sep-23 02:23 UTC.
Position N 35°58' W 005°37'.

Length 99 m; draft 5.6 m.

Type: Tanker. MMSI: 249714000.

Date/timePositionNaut miles runAvg speedWind from/ knotsBaromVisibWave heightAir tempDewpointWater temp
2017-Sep-20 12:25N 35°58' W 005°37'712.3
2017-Sep-20 11:52N 35°60' W 005°29'411.6
2017-Sep-20 11:30N 36°01' W 005°24'4 0.2
2017-Sep-19 06:55N 36°06' W 005°23'3 8.2
2017-Sep-19 06:31N 36°03' W 005°21'1 1.8
2017-Sep-19 05:58N 36°03' W 005°22'1 2.0
2017-Sep-19 05:30N 36°03' W 005°21'0 0.3
2017-Sep-19 05:00N 36°03' W 005°21'0 0.4
2017-Sep-19 04:30N 36°03' W 005°21'1 1.4
2017-Sep-19 04:00N 36°03' W 005°21'0 0.7
2017-Sep-19 03:30N 36°03' W 005°22'5 9.6
2017-Sep-19 03:00N 35°59' W 005°25'8 0.2
2017-Sep-17 00:24N 35°58' W 005°35'410.9
2017-Sep-17 00:00N 35°59' W 005°30'510.4
2017-Sep-16 23:30N 36°01' W 005°24'611.1
2017-Sep-16 23:00N 36°07' W 005°23'0 0.0
2017-Sep-15 17:15N 36°07' W 005°23'411.0
2017-Sep-15 16:54N 36°04' W 005°21'1 3.1
2017-Sep-15 16:30N 36°03' W 005°20'3 5.8
2017-Sep-15 16:00N 36°02' W 005°23'714.3
2017-Sep-15 15:30N 35°57' W 005°30'  
2017-Sep-12 14:00N 35°58' W 005°38'611.1
2017-Sep-12 13:30N 35°59' W 005°31'510.0
2017-Sep-12 13:00N 36°01' W 005°25'510.2
2017-Sep-12 12:30N 36°06' W 005°23'4 7.5
2017-Sep-12 11:59N 36°10' W 005°24'1 0.1
2017-Sep-11 22:05N 36°11' W 005°24'0 0.0
2017-Sep-11 21:47N 36°11' W 005°24'0 0.0
2017-Sep-11 21:29N 36°11' W 005°24'0 0.0
2017-Sep-11 20:59N 36°11' W 005°24'0 0.0
2017-Sep-11 20:29N 36°11' W 005°24'10 0.8
2017-Sep-11 08:23N 36°00' W 005°24'613.9
2017-Sep-11 07:56N 35°57' W 005°30'  

Dump ship's entire track history